Monterey, CA

10:11 AM PDT on September 29, 2016 (GMT -0700)
Monterey Peninsula | | Change Station

Elev 253 ft 36.59 °N, 121.84 °W | Updated 17 minutes ago

Overcast
Overcast
57 °F
Feels Like 57 °F
N
4
Wind Variable Wind from NW

Today
High -- | Low -- °F
--% Chance of Precip.
Yesterday
High -- | Low -- °F
Precip. -- in
Pressure 30.13 in
Visibility 4.0 miles
Clouds Overcast 600 ft
Dew Point 53 °F
Humidity 87%
Rainfall 0.00 in
Snow Depth Not available.
7:01 AM 6:52 PM
Waning Crescent, 2% visible
METAR KMRY 291654Z 31003KT 4SM BR OVC006 14/12 A3010 RMK AO2 SLP203 T01390117
Pressure 30.13 in
Visibility 4.0 miles
Clouds Overcast 600 ft
Dew Point 53 °F
Humidity 87%
Rainfall 0.00 in
Snow Depth Not available.
7:01 AM 6:52 PM
Waning Crescent, 2% visible
METAR KMRY 291654Z 31003KT 4SM BR OVC006 14/12 A3010 RMK AO2 SLP203 T01390117

10-Day Weather Forecast

Almanac

Astronomy

Sep. 29, 2016 Rise Set
Actual Time
Civil Twilight
Nautical Twilight
Astronomical Twilight
Moon
Length of Visible Light
Length of Day
Tomorrow will be .
, % of the Moon is Illuminated

Today's Extremes

State Highs State Lows

Community

WunderPhotos

Upload Photos

1,942,522 photos uploaded!

WunderBlog® & News

Nearby

Air Quality

  Air Quality AQ Index Pollutant
Not available.

Snow Depth

Station Depth Elevation

Earthquake Activity

City Distance Mag. Time & Date
Minimum magnitude displayed is 2.5.

Coastal Water Temperatures

Place Temperature

Stations

Nearby Weather Stations

Station Location Temp. Windchill Dew Point Humidity Wind Precip. Elev Updated Type
                   

Watches & Warnings

There are currently no watches in effect.